Time;durP1;ratioP1;P1;durP2;ratioP2;P2;SDS_P1;SDS_P2;PMS_P1;PMS_P2;Temp;Humidity;BMP_temperature;BMP_pressure;BME280_temperature;BME280_humidity;BME280_pressure;Samples;Min_cycle;Max_cycle;Signal;HPM_P1;HPM_P2
2022/09/13 17:37:05;;;;;;;6.90;2.65;;;;;;;20.70;48.76;98485.53;5144510;27;20551;-70
2022/09/13 17:39:33;;;;;;;3.72;2.95;;;;;;;20.73;49.81;98485.19;5122816;28;20055;-71
2022/09/13 17:42:01;;;;;;;3.65;2.95;;;;;;;20.81;50.03;98490.56;5122684;28;20079;-71
2022/09/13 17:44:28;;;;;;;5.68;3.22;;;;;;;20.88;49.55;98485.34;5122866;28;20315;-71
2022/09/13 17:46:55;;;;;;;4.00;3.10;;;;;;;20.94;49.17;98489.19;5123367;28;20044;-72
2022/09/13 17:49:23;;;;;;;4.47;3.25;;;;;;;20.92;49.81;98473.22;5122835;28;20066;-72
2022/09/13 17:51:53;;;;;;;4.47;3.33;;;;;;;21.04;50.17;98476.41;5122912;28;20039;-72
2022/09/13 17:54:22;;;;;;;5.45;2.75;;;;;;;21.06;49.21;98475.22;5122781;28;20056;-71
2022/09/13 17:56:50;;;;;;;5.35;3.15;;;;;;;20.62;49.86;98399.41;5122578;28;20043;-72
2022/09/13 17:59:20;;;;;;;4.47;3.05;;;;;;;21.14;49.66;98474.38;5122698;28;20048;-72
2022/09/13 18:01:49;;;;;;;3.92;3.25;;;;;;;21.16;49.20;98474.19;5122497;28;20056;-72
2022/09/13 18:04:19;;;;;;;3.85;2.65;;;;;;;21.08;49.74;98453.50;5122525;28;20308;-72
2022/09/13 18:06:47;;;;;;;5.00;3.28;;;;;;;21.19;49.72;98480.06;5122968;28;20196;-71
2022/09/13 18:09:15;;;;;;;4.70;3.40;;;;;;;21.10;49.27;98463.09;5121862;28;20056;-72
2022/09/13 18:11:44;;;;;;;4.28;3.38;;;;;;;21.21;49.38;98477.22;5122211;28;20051;-72
2022/09/13 18:14:13;;;;;;;7.30;3.60;;;;;;;21.21;49.69;98491.53;5122235;28;20063;-71
2022/09/13 18:16:43;;;;;;;7.10;3.30;;;;;;;21.21;49.75;98490.69;5122036;28;20056;-71
2022/09/13 18:19:11;;;;;;;4.47;3.00;;;;;;;21.21;50.05;98491.53;5122012;28;20055;-71
2022/09/13 18:21:39;;;;;;;4.45;3.28;;;;;;;21.19;49.11;98485.47;5122189;28;20051;-72
2022/09/13 18:24:07;;;;;;;4.43;3.10;;;;;;;21.20;49.88;98479.06;5122196;28;20063;-72
2022/09/13 18:26:35;;;;;;;4.50;2.70;;;;;;;21.21;50.05;98471.81;5122152;28;20055;-72
2022/09/13 18:29:07;;;;;;;5.45;4.15;;;;;;;21.21;49.70;98475.34;5122076;28;20046;-72
2022/09/13 18:31:36;;;;;;;6.85;3.78;;;;;;;21.05;49.83;98456.56;5121847;28;20052;-71
2022/09/13 18:34:05;;;;;;;5.00;3.47;;;;;;;21.19;49.27;98476.53;5121521;28;20051;-72
2022/09/13 18:36:34;;;;;;;6.63;4.47;;;;;;;21.21;50.40;98477.22;5121474;28;20052;-71
2022/09/13 18:39:03;;;;;;;6.47;4.55;;;;;;;21.17;50.68;98479.41;5121863;28;20052;-71
2022/09/13 18:41:33;;;;;;;5.80;3.88;;;;;;;21.17;50.59;98487.50;5121494;28;20342;-72
2022/09/13 18:44:00;;;;;;;4.15;3.42;;;;;;;21.15;50.39;98478.75;5121444;28;20211;-71
2022/09/13 18:46:30;;;;;;;4.88;4.38;;;;;;;21.02;49.77;98463.13;5119222;28;20059;-71
2022/09/13 18:48:58;;;;;;;8.27;5.15;;;;;;;21.07;50.80;98473.38;5108134;28;20055;-72
2022/09/13 18:51:28;;;;;;;6.60;5.03;;;;;;;20.86;51.24;98443.44;5107973;28;20063;-71
2022/09/13 18:53:57;;;;;;;8.13;5.95;;;;;;;21.11;51.23;98483.63;5100027;28;20056;-71
2022/09/13 18:56:25;;;;;;;6.95;5.32;;;;;;;21.11;51.44;98480.09;5087930;28;20052;-71
2022/09/13 18:58:54;;;;;;;5.45;4.57;;;;;;;20.95;51.76;98450.47;5087192;28;20059;-72
2022/09/13 19:01:23;;;;;;;5.18;3.95;;;;;;;21.07;51.74;98473.38;5087003;28;20062;-71
2022/09/13 19:03:53;;;;;;;5.15;4.00;;;;;;;21.08;52.01;98466.97;5087626;28;20053;-72
2022/09/13 19:06:22;;;;;;;6.50;4.32;;;;;;;21.04;51.87;98473.72;5087397;28;20053;-72
2022/09/13 19:08:51;;;;;;;5.35;3.90;;;;;;;21.01;52.10;98477.56;5087012;28;20313;-72
2022/09/13 19:11:20;;;;;;;6.05;5.03;;;;;;;20.66;52.21;98424.97;5069642;28;20189;-72
2022/09/13 19:13:47;;;;;;;6.97;5.43;;;;;;;20.41;52.32;98391.03;5087012;28;20075;-72
2022/09/13 19:16:17;;;;;;;8.55;5.90;;;;;;;20.81;52.75;98457.41;5087289;28;20056;-72
2022/09/13 19:18:49;;;;;;;9.98;7.68;;;;;;;20.91;52.50;98476.06;5087292;28;20052;-72
2022/09/13 19:21:21;;;;;;;15.20;12.20;;;;;;;20.89;52.79;98480.78;5087415;28;20056;-71
2022/09/13 19:23:50;;;;;;;8.95;7.45;;;;;;;20.89;52.81;98478.94;5087211;28;20052;-72
2022/09/13 19:26:22;;;;;;;13.68;9.18;;;;;;;20.88;52.88;98474.56;5087370;28;20060;-71
2022/09/13 19:28:51;;;;;;;6.40;5.43;;;;;;;20.86;52.49;98481.97;5087106;28;20063;-72
